»·PEaware :: WAT1252 KSNA-KBFL

WAT1252 :: KSNA-KBFL

FLIGHT INFORMATION

Flight Status: Arrived
Operator:
Walker Air Transport
More flights by this operator :: More flights under this callsign
Pilot: David D. (37029)
Aircraft: PIPER PA-31/31P NAVAJO CHIEFTAIN
(PA31)
More flights by this aircraft type
Origin: KSNA John Wayne-Orange Co
United States
Destination: KBFL Meadows
United States
More flights between these airports :: More routes between these airports
Route: ANAHM1 LHS FASTO2
File this flight plan on PilotEdge
Remarks:
Altitude:
(Current/Filed)
10,000ft
Speed:
(Current/Filed)
180kts
Departed: 24-Apr-23 08:50 AM
Arrived: 24-Apr-23 09:46 AM
Distance/Time
Traveled:
120nm/0:55
Distance/Time
To Go:
Arrived

Flight Plot

Page will automatically refresh every two minutes.

Flight plan parsing failed; only flown route is shown


Map Options




Map Legend


Flown Route
Filed Route
Departure Airport
Arrival Airport
Navaid (VOR, NDB)
Fix

Horizontal Profiles

Position Reports

Time Latitude Longitude Heading Altitude Ground
Speed
24-Apr-23 07:58 33.670448 -117.874530 27 60ft 0kts
24-Apr-23 07:59 33.670448 -117.874530 27 60ft 0kts
24-Apr-23 08:00 33.670448 -117.874530 27 60ft 0kts
24-Apr-23 08:01 33.670448 -117.874530 27 60ft 0kts
24-Apr-23 08:02 33.670448 -117.874530 27 60ft 0kts
24-Apr-23 08:03 33.670448 -117.874530 27 60ft 0kts
24-Apr-23 08:04 33.670448 -117.874530 27 60ft 0kts
24-Apr-23 08:05 33.670448 -117.874530 27 60ft 0kts
24-Apr-23 08:06 33.670448 -117.874530 27 60ft 0kts
24-Apr-23 08:07 33.670448 -117.874530 27 60ft 0kts
24-Apr-23 08:08 33.670448 -117.874530 27 60ft 0kts
24-Apr-23 08:09 33.670448 -117.874530 27 60ft 0kts
24-Apr-23 08:10 33.670448 -117.874530 27 60ft 0kts
24-Apr-23 08:11 33.670448 -117.874530 27 60ft 0kts
24-Apr-23 08:12 33.670448 -117.874530 27 60ft 0kts
24-Apr-23 08:12 33.670448 -117.874530 27 60ft 0kts
24-Apr-23 08:14 33.670448 -117.874530 27 60ft 0kts
24-Apr-23 08:15 33.670448 -117.874530 27 60ft 0kts
24-Apr-23 08:16 33.670448 -117.874530 27 60ft 0kts
24-Apr-23 08:16 33.670448 -117.874530 27 60ft 0kts
24-Apr-23 08:18 33.670448 -117.874530 27 60ft 0kts
24-Apr-23 08:19 33.670448 -117.874530 27 60ft 0kts
24-Apr-23 08:19 33.670448 -117.874530 27 60ft 0kts
24-Apr-23 08:20 33.670448 -117.874530 27 60ft 0kts
24-Apr-23 08:22 33.670448 -117.874530 27 60ft 0kts
24-Apr-23 08:23 33.670448 -117.874530 27 60ft 0kts
24-Apr-23 08:23 33.670448 -117.874530 27 60ft 0kts
24-Apr-23 08:24 33.670448 -117.874530 27 60ft 0kts
24-Apr-23 08:25 33.670448 -117.874530 27 60ft 0kts
24-Apr-23 08:26 33.670448 -117.874530 27 60ft 0kts
24-Apr-23 08:27 33.670448 -117.874530 27 60ft 0kts
24-Apr-23 08:28 33.670448 -117.874530 27 60ft 0kts
24-Apr-23 08:29 33.670448 -117.874530 27 60ft 0kts
24-Apr-23 08:30 33.670448 -117.874530 27 60ft 0kts
24-Apr-23 08:31 33.670448 -117.874530 27 60ft 0kts
24-Apr-23 08:32 33.670448 -117.874530 27 60ft 0kts
24-Apr-23 08:33 33.670448 -117.874530 27 60ft 0kts
24-Apr-23 08:34 33.670448 -117.874530 27 60ft 0kts
24-Apr-23 08:35 33.670448 -117.874530 27 60ft 0kts
24-Apr-23 08:36 33.670448 -117.874530 27 60ft 0kts
24-Apr-23 08:37 33.670448 -117.874530 27 60ft 0kts
24-Apr-23 08:38 33.670448 -117.874530 27 60ft 0kts
24-Apr-23 08:39 33.670448 -117.874530 27 60ft 0kts
24-Apr-23 08:40 33.670448 -117.874530 27 60ft 0kts
24-Apr-23 08:41 33.670352 -117.873806 50 60ft 8kts
24-Apr-23 08:42 33.672234 -117.872524 26 60ft 11kts
24-Apr-23 08:43 33.675581 -117.870402 27 60ft 15kts
24-Apr-23 08:44 33.679302 -117.868105 19 60ft 14kts
24-Apr-23 08:45 33.681225 -117.866473 110 60ft 0kts
24-Apr-23 08:46 33.681225 -117.866473 110 60ft 0kts
24-Apr-23 08:47 33.681225 -117.866473 110 60ft 0kts
24-Apr-23 08:48 33.681225 -117.866473 110 60ft 0kts
24-Apr-23 08:49 33.676914 -117.868065 206 60ft 86kts
24-Apr-23 08:50 33.659908 -117.893906 236 1186ft 107kts
24-Apr-23 08:51 33.649008 -117.925333 287 2310ft 109kts
24-Apr-23 08:52 33.660627 -117.960021 294 3418ft 115kts
24-Apr-23 08:53 33.675588 -117.998778 294 3941ft 155kts
24-Apr-23 08:54 33.696045 -118.048705 301 3924ft 169kts
24-Apr-23 08:55 33.736602 -118.043920 30 3928ft 158kts
24-Apr-23 08:56 33.775451 -118.019932 31 3930ft 155kts
24-Apr-23 08:57 33.801169 -117.982026 69 3932ft 145kts
24-Apr-23 08:58 33.814027 -117.936423 72 3934ft 143kts
24-Apr-23 08:59 33.825543 -117.891618 72 4301ft 131kts
24-Apr-23 09:00 33.835915 -117.851451 71 4956ft 123kts
24-Apr-23 09:01 33.847448 -117.807022 70 4986ft 151kts
24-Apr-23 09:02 33.880074 -117.782689 1 4986ft 159kts
24-Apr-23 09:03 33.924826 -117.783786 0 4983ft 161kts
24-Apr-23 09:04 33.969701 -117.784828 356 4977ft 163kts
24-Apr-23 09:05 34.011581 -117.800044 293 4990ft 166kts
24-Apr-23 09:06 34.028432 -117.853298 289 4987ft 175kts
24-Apr-23 09:07 34.045458 -117.909126 291 5026ft 176kts
24-Apr-23 09:08 34.061899 -117.962292 291 5784ft 163kts
24-Apr-23 09:09 34.077547 -118.013320 292 6534ft 162kts
24-Apr-23 09:10 34.093312 -118.064665 293 7278ft 163kts
24-Apr-23 09:11 34.109132 -118.116215 293 8014ft 165kts
24-Apr-23 09:12 34.125220 -118.168827 293 8746ft 168kts
24-Apr-23 09:13 34.141577 -118.222314 292 9479ft 172kts
24-Apr-23 09:14 34.163000 -118.273481 335 9990ft 180kts
24-Apr-23 09:15 34.210426 -118.301433 339 9978ft 193kts
24-Apr-23 09:16 34.258984 -118.329395 339 9978ft 193kts
24-Apr-23 09:17 34.307408 -118.357515 339 9977ft 194kts
24-Apr-23 09:18 34.356047 -118.385816 339 9976ft 194kts
24-Apr-23 09:19 34.404889 -118.414295 339 9975ft 194kts
24-Apr-23 09:20 34.453642 -118.442716 339 9975ft 195kts
24-Apr-23 09:21 34.502449 -118.471250 340 9975ft 195kts
24-Apr-23 09:22 34.551138 -118.499714 340 9974ft 195kts
24-Apr-23 09:23 34.599984 -118.528301 340 9976ft 195kts
24-Apr-23 09:24 34.648849 -118.557005 340 9979ft 195kts
24-Apr-23 09:25 34.696150 -118.590350 319 9994ft 200kts
24-Apr-23 09:26 34.739171 -118.634169 318 10023ft 202kts
24-Apr-23 09:27 34.782046 -118.677903 325 10049ft 199kts
24-Apr-23 09:28 34.824186 -118.720889 325 10070ft 197kts
24-Apr-23 09:29 34.866067 -118.763670 325 10082ft 195kts
24-Apr-23 09:30 34.907493 -118.806042 325 10085ft 194kts
24-Apr-23 09:31 34.948765 -118.848301 324 10072ft 194kts
24-Apr-23 09:32 34.997649 -118.861756 3 10066ft 182kts
24-Apr-23 09:33 35.047340 -118.861547 2 9633ft 179kts
24-Apr-23 09:34 35.098970 -118.861504 1 8543ft 190kts
24-Apr-23 09:35 35.151703 -118.861465 1 7461ft 190kts
24-Apr-23 09:36 35.204081 -118.861495 0 6060ft 185kts
24-Apr-23 09:37 35.254732 -118.861467 0 4689ft 180kts
24-Apr-23 09:38 35.296342 -118.889988 315 3337ft 177kts
24-Apr-23 09:39 35.326071 -118.927925 314 2557ft 122kts
24-Apr-23 09:40 35.348837 -118.955272 316 2146ft 107kts
24-Apr-23 09:41 35.370011 -118.979390 315 1844ft 102kts
24-Apr-23 09:42 35.390387 -119.003957 313 1604ft 108kts
24-Apr-23 09:43 35.411464 -119.029125 314 1068ft 98kts
24-Apr-23 09:44 35.430157 -119.051789 315 515ft 84kts
24-Apr-23 09:45 35.439357 -119.062840 315 499ft 23kts
24-Apr-23 09:46 35.440573 -119.063014 43 503ft 0kts
24-Apr-23 09:47 35.440753 -119.062799 52 504ft 6kts
24-Apr-23 09:48 35.438046 -119.058999 135 499ft 15kts
24-Apr-23 09:49 35.434697 -119.054969 134 496ft 17kts
24-Apr-23 09:50 35.431455 -119.051079 138 494ft 16kts
24-Apr-23 09:51 35.428554 -119.047550 127 492ft 6kts
24-Apr-23 09:52 35.429224 -119.046117 314 498ft 0kts
24-Apr-23 09:53 35.429226 -119.046119 313 498ft 0kts
24-Apr-23 09:54 35.429226 -119.046119 313 498ft 0kts
24-Apr-23 09:55 35.429226 -119.046119 313 498ft 0kts
24-Apr-23 09:56 35.429226 -119.046119 313 498ft 0kts
24-Apr-23 09:57 35.429226 -119.046119 313 498ft 0kts

Navigation Log

Ident Type
Flight plan parsing failed, navigation log unavailable